createdAt,value
2023-05-15T00:00:57.733Z,26.20
2023-05-15T00:03:31.651Z,26.60
2023-05-15T00:06:02.743Z,28.40
2023-05-15T00:08:33.695Z,27.00
2023-05-15T00:11:07.257Z,28.50
2023-05-15T00:13:38.648Z,28.30
2023-05-15T00:16:10.344Z,29.30
2023-05-15T00:18:41.249Z,29.40
2023-05-15T00:21:12.207Z,29.00
2023-05-15T00:23:43.204Z,29.90
2023-05-15T00:26:17.096Z,29.20
2023-05-15T00:28:48.032Z,30.00
2023-05-15T00:31:19.076Z,30.00
2023-05-15T00:33:50.452Z,29.60
2023-05-15T00:36:22.117Z,30.00
2023-05-15T00:38:54.035Z,29.70
2023-05-15T00:41:32.179Z,30.10
2023-05-15T00:44:04.788Z,30.30
2023-05-15T00:46:38.184Z,30.50
2023-05-15T00:49:13.670Z,31.00
2023-05-15T00:51:45.133Z,30.30
2023-05-15T00:54:16.411Z,29.80
2023-05-15T00:56:52.068Z,30.00
2023-05-15T00:59:24.858Z,30.60
2023-05-15T01:01:55.838Z,31.00
2023-05-15T01:04:26.872Z,32.20
2023-05-15T01:06:58.103Z,32.30
2023-05-15T01:09:31.414Z,34.20
2023-05-15T01:12:07.819Z,32.90
2023-05-15T01:14:38.936Z,32.90
2023-05-15T01:17:09.937Z,32.40
2023-05-15T01:19:42.401Z,33.60
2023-05-15T01:22:36.703Z,33.80
2023-05-15T01:25:37.472Z,33.80
2023-05-15T01:28:15.391Z,34.60
2023-05-15T01:30:47.616Z,34.60
2023-05-15T01:33:23.826Z,34.90
2023-05-15T01:36:02.006Z,34.50
2023-05-15T01:38:39.774Z,34.50
2023-05-15T01:41:18.229Z,36.70
2023-05-15T01:43:59.900Z,37.30
2023-05-15T01:46:34.027Z,37.70
2023-05-15T01:49:05.627Z,39.40
2023-05-15T01:51:36.954Z,40.10
2023-05-15T01:54:09.691Z,39.40
2023-05-15T01:56:43.346Z,39.00
2023-05-15T01:59:17.441Z,39.70
2023-05-15T02:01:48.940Z,40.00
2023-05-15T02:04:21.795Z,39.70
2023-05-15T02:06:53.375Z,39.40
2023-05-15T02:09:25.018Z,39.10
2023-05-15T02:11:56.863Z,41.10
2023-05-15T02:14:31.970Z,40.80
2023-05-15T02:17:05.703Z,41.60
2023-05-15T02:19:36.651Z,40.00
2023-05-15T02:22:08.022Z,39.90
2023-05-15T02:24:38.911Z,42.30
2023-05-15T02:27:20.449Z,41.60
2023-05-15T02:30:06.308Z,42.40
2023-05-15T02:32:52.476Z,41.30
2023-05-15T02:35:33.891Z,42.10
2023-05-15T02:38:10.815Z,44.40
2023-05-15T02:40:43.239Z,43.00
2023-05-15T02:43:15.446Z,44.30
2023-05-15T02:45:49.528Z,43.40
2023-05-15T02:48:21.233Z,45.00
2023-05-15T02:50:52.513Z,44.40
2023-05-15T02:53:23.506Z,44.30
2023-05-15T02:55:54.778Z,45.80
2023-05-15T02:58:29.066Z,47.80
2023-05-15T03:01:02.912Z,48.60
2023-05-15T03:03:33.859Z,47.80
2023-05-15T03:06:04.803Z,54.30
2023-05-15T03:08:37.755Z,52.00
2023-05-15T03:11:08.739Z,54.30
2023-05-15T03:13:39.826Z,51.50
2023-05-15T03:16:13.293Z,54.20
2023-05-15T03:18:44.385Z,54.10
2023-05-15T03:21:16.170Z,54.70
2023-05-15T03:23:47.081Z,64.60
2023-05-15T03:26:19.804Z,99.90
2023-05-15T03:28:51.145Z,99.90
2023-05-15T03:31:24.722Z,97.20
2023-05-15T03:33:55.696Z,99.90
2023-05-15T03:36:26.568Z,99.90
2023-05-15T03:38:57.628Z,99.90
2023-05-15T03:41:31.238Z,99.90
2023-05-15T03:44:02.070Z,99.90
2023-05-15T03:46:35.648Z,99.90
2023-05-15T03:49:06.787Z,99.90
2023-05-15T03:51:38.089Z,99.90
2023-05-15T03:54:09.323Z,99.90
2023-05-15T03:56:40.502Z,99.90
2023-05-15T03:59:11.432Z,99.90
2023-05-15T04:02:02.613Z,99.90
2023-05-15T04:04:35.608Z,99.90
2023-05-15T04:07:07.244Z,99.90
2023-05-15T04:09:38.865Z,99.90
2023-05-15T04:12:10.220Z,99.90
2023-05-15T04:14:41.360Z,99.90
2023-05-15T04:17:14.779Z,99.90
2023-05-15T04:19:46.054Z,99.90
2023-05-15T04:22:16.877Z,99.90
2023-05-15T04:24:47.868Z,99.90
2023-05-15T04:27:19.004Z,99.90
2023-05-15T04:29:49.810Z,99.90
2023-05-15T04:32:23.331Z,99.90
2023-05-15T04:34:54.300Z,99.90
2023-05-15T04:37:25.591Z,99.90
2023-05-15T04:39:56.407Z,99.90
2023-05-15T04:42:27.268Z,99.90
2023-05-15T04:44:58.158Z,99.90
2023-05-15T04:47:31.737Z,99.90
2023-05-15T04:50:03.020Z,99.90
2023-05-15T04:52:33.955Z,99.90
2023-05-15T04:55:04.928Z,99.90
2023-05-15T04:57:35.809Z,99.90
2023-05-15T05:00:10.399Z,99.90
2023-05-15T05:02:44.533Z,99.90
2023-05-15T05:05:19.596Z,99.90
2023-05-15T05:07:52.368Z,99.90
2023-05-15T05:10:23.218Z,99.90
2023-05-15T05:12:54.138Z,99.90
2023-05-15T05:15:25.115Z,99.90
2023-05-15T05:18:01.314Z,99.90
2023-05-15T05:20:32.502Z,99.90
2023-05-15T05:23:03.334Z,99.90
2023-05-15T05:25:35.181Z,99.90
2023-05-15T05:28:06.370Z,99.90
2023-05-15T05:30:37.459Z,99.90
2023-05-15T05:33:18.596Z,99.90
2023-05-15T05:35:49.794Z,98.00
2023-05-15T05:38:20.636Z,98.00
2023-05-15T05:40:51.716Z,97.10
2023-05-15T05:43:22.883Z,96.20
2023-05-15T05:45:53.748Z,94.70
2023-05-15T05:48:27.263Z,93.50
2023-05-15T05:50:58.507Z,93.90
2023-05-15T05:53:29.352Z,93.70
2023-05-15T05:56:00.328Z,92.80
2023-05-15T05:58:31.441Z,92.80
2023-05-15T06:01:02.414Z,92.90
2023-05-15T06:03:39.347Z,87.00
2023-05-15T06:06:10.302Z,82.80
2023-05-15T06:08:41.177Z,79.10
2023-05-15T06:11:12.055Z,77.60
2023-05-15T06:13:43.573Z,74.50
2023-05-15T06:16:14.521Z,71.20
2023-05-15T06:18:47.945Z,69.70
2023-05-15T06:21:18.912Z,69.90
2023-05-15T06:23:49.728Z,71.10
2023-05-15T06:26:22.080Z,68.30
2023-05-15T06:28:52.949Z,68.00
2023-05-15T06:31:24.132Z,68.00
2023-05-15T06:33:59.990Z,65.00
2023-05-15T06:36:30.766Z,64.40
2023-05-15T06:39:04.389Z,62.10
2023-05-15T06:41:36.126Z,61.60
2023-05-15T06:44:07.070Z,62.60
2023-05-15T06:46:39.476Z,60.20
2023-05-15T06:49:13.278Z,61.00
2023-05-15T06:51:44.158Z,59.90
2023-05-15T06:54:15.370Z,59.70
2023-05-15T06:56:46.210Z,57.60
2023-05-15T06:59:17.273Z,56.80
2023-05-15T07:01:48.173Z,54.90
2023-05-15T07:04:21.698Z,53.40
2023-05-15T07:06:52.635Z,54.00
2023-05-15T07:09:23.443Z,49.30
2023-05-15T07:11:54.331Z,46.80
2023-05-15T07:14:25.156Z,44.40
2023-05-15T07:16:56.089Z,35.20
2023-05-15T07:19:30.160Z,30.90
2023-05-15T07:22:03.211Z,29.00
2023-05-15T07:24:34.448Z,30.10
2023-05-15T07:27:05.334Z,30.00
2023-05-15T07:29:36.108Z,31.20
2023-05-15T07:32:07.598Z,30.20
2023-05-15T07:34:42.459Z,30.80
2023-05-15T07:37:14.908Z,31.20
2023-05-15T07:39:47.630Z,29.80
2023-05-15T07:42:18.476Z,30.80
2023-05-15T07:44:49.642Z,30.60
2023-05-15T07:47:20.880Z,30.00
2023-05-15T07:49:54.285Z,32.60
2023-05-15T07:52:25.114Z,31.30
2023-05-15T07:54:56.108Z,31.10
2023-05-15T07:57:27.041Z,31.10
2023-05-15T07:59:57.970Z,31.60
2023-05-15T08:02:31.766Z,31.10
2023-05-15T08:05:05.549Z,31.90
2023-05-15T08:07:36.425Z,32.20
2023-05-15T08:10:08.005Z,32.50
2023-05-15T08:12:38.953Z,31.20
2023-05-15T08:15:11.370Z,31.10
2023-05-15T08:17:42.366Z,31.20
2023-05-15T08:20:16.492Z,30.60
2023-05-15T08:22:47.550Z,29.70
2023-05-15T08:25:18.558Z,28.00
2023-05-15T08:27:49.374Z,29.20
2023-05-15T08:30:21.388Z,28.90
2023-05-15T08:32:52.649Z,28.20
2023-05-15T08:35:26.445Z,27.60
2023-05-15T08:37:58.038Z,27.00
2023-05-15T08:43:06.917Z,24.50
2023-05-15T08:45:39.473Z,23.30
2023-05-15T08:48:15.275Z,23.60
2023-05-15T08:50:52.835Z,24.50
2023-05-15T08:53:24.390Z,22.70
2023-05-15T08:55:55.497Z,21.70
2023-05-15T08:58:28.525Z,24.00
2023-05-15T09:01:01.562Z,21.50
2023-05-15T09:03:32.714Z,20.70
2023-05-15T09:06:08.000Z,21.90
2023-05-15T09:08:39.631Z,18.10
2023-05-15T09:11:11.314Z,16.40
2023-05-15T09:13:42.170Z,17.40
2023-05-15T09:16:13.432Z,16.60
2023-05-15T09:18:45.026Z,17.20
2023-05-15T09:21:29.177Z,14.90
2023-05-15T09:24:19.964Z,18.10
2023-05-15T09:27:04.733Z,15.80
2023-05-15T09:29:37.287Z,14.60
2023-05-15T09:32:10.755Z,14.90
2023-05-15T09:34:43.095Z,15.10
2023-05-15T09:37:31.393Z,13.30
2023-05-15T09:40:12.214Z,11.90
2023-05-15T09:42:43.125Z,12.80
2023-05-15T09:45:21.068Z,11.20
2023-05-15T09:47:52.178Z,9.30
2023-05-15T09:50:28.184Z,7.60
2023-05-15T09:53:05.244Z,7.30
2023-05-15T09:55:37.384Z,10.60
2023-05-15T09:58:12.878Z,8.80
2023-05-15T10:00:47.609Z,6.90
2023-05-15T10:03:21.504Z,7.10
2023-05-15T10:05:52.404Z,7.60
2023-05-15T10:08:32.034Z,7.30
2023-05-15T10:11:07.436Z,8.30
2023-05-15T10:13:39.672Z,5.40
2023-05-15T10:16:10.854Z,8.90
2023-05-15T10:18:43.337Z,9.10
2023-05-15T10:21:15.321Z,6.10
2023-05-15T10:23:50.597Z,6.00
2023-05-15T10:26:26.502Z,5.50
2023-05-15T10:28:59.178Z,6.60
2023-05-15T10:31:32.021Z,6.50
2023-05-15T10:34:03.776Z,6.90
2023-05-15T10:36:35.320Z,4.60
2023-05-15T10:39:10.655Z,5.20
2023-05-15T10:41:42.988Z,4.80
2023-05-15T10:44:18.799Z,4.30
2023-05-15T10:46:50.511Z,4.90
2023-05-15T10:49:26.478Z,3.50
2023-05-15T10:51:57.441Z,5.50
2023-05-15T10:54:31.551Z,3.30
2023-05-15T10:57:06.978Z,3.30
2023-05-15T10:59:38.033Z,3.50
2023-05-15T11:02:23.621Z,2.00
2023-05-15T11:05:02.036Z,2.40
2023-05-15T11:07:32.929Z,3.40
2023-05-15T11:10:42.159Z,4.40
2023-05-15T11:13:13.399Z,1.00
2023-05-15T11:15:45.665Z,1.00
2023-05-15T11:18:19.554Z,1.00
2023-05-15T11:21:11.507Z,1.00
2023-05-15T11:23:44.178Z,1.00
2023-05-15T11:26:20.222Z,1.00
2023-05-15T11:28:54.751Z,1.00
2023-05-15T11:31:33.111Z,1.00
2023-05-15T11:34:08.126Z,1.00
2023-05-15T11:36:41.609Z,1.00
2023-05-15T11:39:13.541Z,1.00
2023-05-15T11:41:47.236Z,1.00
2023-05-15T11:44:23.186Z,1.00
2023-05-15T11:46:58.021Z,1.00
2023-05-15T11:49:29.793Z,1.00
2023-05-15T11:52:01.235Z,1.00
2023-05-15T11:54:32.970Z,1.00
2023-05-15T11:57:10.077Z,1.00
2023-05-15T11:59:41.100Z,1.00
2023-05-15T12:02:12.521Z,1.00
2023-05-15T12:04:43.385Z,1.00
2023-05-15T12:07:14.832Z,1.00
2023-05-15T12:09:45.785Z,1.00
2023-05-15T12:12:19.211Z,1.00
2023-05-15T12:14:50.035Z,1.00
2023-05-15T12:17:21.544Z,1.00
2023-05-15T12:19:54.219Z,1.00
2023-05-15T12:22:26.554Z,1.00
2023-05-15T12:25:01.740Z,1.00
2023-05-15T12:27:35.857Z,1.00
2023-05-15T12:30:08.171Z,1.00
2023-05-15T12:32:40.604Z,1.00
2023-05-15T12:35:13.216Z,1.00
2023-05-15T12:37:45.000Z,1.00
2023-05-15T12:40:19.558Z,1.00
2023-05-15T12:42:56.425Z,1.00
2023-05-15T12:45:28.854Z,1.00
2023-05-15T12:48:02.025Z,1.00
2023-05-15T12:50:38.202Z,1.00
2023-05-15T12:53:09.029Z,1.00
2023-05-15T12:55:40.092Z,1.00
2023-05-15T12:58:15.353Z,1.00
2023-05-15T13:00:51.089Z,1.00
2023-05-15T13:03:24.574Z,1.00
2023-05-15T13:05:55.526Z,1.00
2023-05-15T13:08:26.788Z,1.00
2023-05-15T13:11:00.608Z,1.00
2023-05-15T13:13:48.812Z,1.00
2023-05-15T13:16:24.659Z,1.00
2023-05-15T13:18:56.117Z,1.00
2023-05-15T13:21:29.863Z,1.00
2023-05-15T13:24:00.921Z,1.00
2023-05-15T13:26:31.856Z,1.00
2023-05-15T13:29:05.817Z,1.00
2023-05-15T13:31:38.783Z,1.00
2023-05-15T13:34:10.069Z,1.00
2023-05-15T13:36:41.186Z,1.00
2023-05-15T13:39:12.031Z,1.00
2023-05-15T13:41:42.937Z,1.00
2023-05-15T13:44:16.395Z,1.00
2023-05-15T13:46:47.431Z,1.00
2023-05-15T13:49:18.316Z,1.00
2023-05-15T13:51:49.147Z,1.00
2023-05-15T13:54:21.232Z,1.00
2023-05-15T13:56:52.379Z,1.00
2023-05-15T13:59:25.947Z,1.00
2023-05-15T14:01:57.017Z,1.00
2023-05-15T14:04:28.374Z,1.00
2023-05-15T14:07:02.360Z,1.00
2023-05-15T14:09:33.539Z,1.00
2023-05-15T14:12:04.484Z,1.00
2023-05-15T14:14:38.133Z,1.00
2023-05-15T14:17:09.275Z,1.00
2023-05-15T14:19:40.560Z,1.00
2023-05-15T14:22:11.472Z,1.00
2023-05-15T14:24:42.322Z,1.00
2023-05-15T14:27:13.208Z,1.00
2023-05-15T14:29:48.557Z,1.00
2023-05-15T14:32:20.254Z,1.00
2023-05-15T14:34:51.228Z,1.00
2023-05-15T14:37:22.123Z,1.00
2023-05-15T14:39:53.012Z,1.00
2023-05-15T14:42:24.339Z,1.00
2023-05-15T14:44:57.771Z,1.00
2023-05-15T14:47:30.208Z,1.00
2023-05-15T14:50:01.245Z,1.00
2023-05-15T14:52:32.265Z,1.00
2023-05-15T14:57:47.715Z,1.00
2023-05-15T15:00:21.540Z,1.00
2023-05-15T15:02:52.672Z,1.00
2023-05-15T15:05:23.879Z,1.00
2023-05-15T15:08:03.820Z,1.00
2023-05-15T15:10:35.844Z,1.00
2023-05-15T15:13:07.669Z,1.00
2023-05-15T15:15:41.370Z,1.00
2023-05-15T15:18:12.572Z,1.00
2023-05-15T15:20:44.866Z,1.00
2023-05-15T15:23:15.914Z,1.00
2023-05-15T15:25:46.888Z,1.00
2023-05-15T15:28:17.723Z,1.00
2023-05-15T15:30:51.160Z,1.00
2023-05-15T15:33:21.946Z,1.00
2023-05-15T15:35:52.783Z,1.00
2023-05-15T15:38:23.854Z,1.00
2023-05-15T15:40:54.672Z,1.00
2023-05-15T15:43:25.725Z,1.00
2023-05-15T15:45:59.586Z,1.00
2023-05-15T15:48:30.492Z,1.00
2023-05-15T15:51:01.399Z,1.00
2023-05-15T15:53:34.171Z,1.00
2023-05-15T15:56:05.211Z,1.00
2023-05-15T15:58:36.358Z,1.00
2023-05-15T16:01:10.119Z,1.00
2023-05-15T16:03:41.011Z,1.00
2023-05-15T16:06:12.476Z,1.00
2023-05-15T16:08:43.320Z,1.00
2023-05-15T16:11:14.137Z,1.00
2023-05-15T16:13:45.007Z,1.00
2023-05-15T16:16:18.945Z,1.00
2023-05-15T16:18:50.344Z,1.00
2023-05-15T16:21:21.473Z,1.00
2023-05-15T16:23:52.313Z,1.00
2023-05-15T16:26:23.540Z,1.00
2023-05-15T16:28:54.627Z,1.00
2023-05-15T16:31:28.228Z,1.00
2023-05-15T16:34:02.826Z,1.00
2023-05-15T16:36:34.741Z,1.00
2023-05-15T16:39:05.867Z,1.00
2023-05-15T16:41:36.709Z,1.00
2023-05-15T16:44:11.068Z,1.00
2023-05-15T16:46:44.589Z,1.00
2023-05-15T16:49:15.424Z,1.00
2023-05-15T16:51:46.358Z,1.00
2023-05-15T16:54:22.047Z,1.00
2023-05-15T16:56:52.854Z,1.00
2023-05-15T16:59:23.721Z,1.00
2023-05-15T17:01:58.638Z,1.00
2023-05-15T17:04:33.061Z,1.00
2023-05-15T17:07:04.790Z,1.00
2023-05-15T17:09:38.246Z,1.00
2023-05-15T17:12:10.289Z,1.00
2023-05-15T17:14:41.169Z,1.00
2023-05-15T17:17:14.689Z,1.00
2023-05-15T17:19:45.579Z,1.00
2023-05-15T17:22:16.873Z,1.00
2023-05-15T17:24:51.004Z,1.00
2023-05-15T17:27:23.000Z,1.00
2023-05-15T17:29:53.970Z,1.00
2023-05-15T17:32:27.701Z,1.00
2023-05-15T17:34:58.693Z,1.00
2023-05-15T17:37:29.584Z,1.00
2023-05-15T17:40:00.431Z,1.00
2023-05-15T17:42:31.363Z,1.00
2023-05-15T17:45:02.733Z,1.00
2023-05-15T17:47:36.219Z,1.00
2023-05-15T17:50:07.894Z,1.00
2023-05-15T17:52:39.739Z,1.00
2023-05-15T17:55:14.033Z,1.00
2023-05-15T17:57:44.969Z,1.00
2023-05-15T18:00:17.880Z,1.00
2023-05-15T18:02:51.259Z,1.00
2023-05-15T18:05:22.118Z,1.00
2023-05-15T18:07:53.118Z,1.00
2023-05-15T18:10:24.186Z,1.00
2023-05-15T18:12:55.032Z,1.00
2023-05-15T18:15:26.221Z,1.40
2023-05-15T18:17:59.873Z,1.30
2023-05-15T18:20:30.797Z,2.00
2023-05-15T18:23:01.618Z,2.10
2023-05-15T18:25:36.769Z,3.10
2023-05-15T18:28:08.863Z,3.60
2023-05-15T18:30:39.862Z,4.60
2023-05-15T18:33:13.304Z,4.50
2023-05-15T18:35:44.151Z,4.90
2023-05-15T18:38:15.006Z,5.40
2023-05-15T18:40:49.096Z,5.50
2023-05-15T18:43:20.057Z,5.30
2023-05-15T18:45:51.098Z,5.40
2023-05-15T18:48:26.176Z,5.50
2023-05-15T18:50:57.177Z,6.60
2023-05-15T18:53:28.376Z,6.60
2023-05-15T18:55:59.195Z,6.30
2023-05-15T18:58:30.043Z,6.50
2023-05-15T19:01:00.855Z,6.80
2023-05-15T19:03:38.249Z,7.60
2023-05-15T19:06:09.183Z,7.10
2023-05-15T19:08:40.113Z,8.40
2023-05-15T19:11:12.420Z,8.00
2023-05-15T19:13:43.271Z,9.00
2023-05-15T19:16:14.149Z,8.80
2023-05-15T19:18:47.718Z,9.10
2023-05-15T19:21:21.112Z,10.00
2023-05-15T19:23:52.992Z,9.90
2023-05-15T19:26:24.375Z,9.90
2023-05-15T19:28:55.660Z,10.70
2023-05-15T19:31:31.263Z,11.10
2023-05-15T19:34:05.635Z,11.70
2023-05-15T19:36:36.466Z,12.30
2023-05-15T19:39:07.438Z,12.40
2023-05-15T19:41:38.227Z,13.30
2023-05-15T19:44:11.340Z,14.10
2023-05-15T19:46:42.737Z,14.50
2023-05-15T19:49:16.357Z,15.00
2023-05-15T19:51:47.170Z,15.70
2023-05-15T19:54:18.867Z,17.60
2023-05-15T19:56:49.747Z,18.00
2023-05-15T19:59:23.565Z,18.50
2023-05-15T20:01:54.568Z,18.50
2023-05-15T20:04:28.050Z,18.50
2023-05-15T20:06:58.857Z,19.50
2023-05-15T20:09:30.066Z,20.20
2023-05-15T20:12:03.367Z,20.70
2023-05-15T20:14:35.005Z,20.00
2023-05-15T20:17:06.058Z,20.30
2023-05-15T20:19:39.593Z,20.30
2023-05-15T20:22:10.483Z,20.40
2023-05-15T20:24:41.318Z,20.70
2023-05-15T20:27:12.152Z,21.40
2023-05-15T20:29:42.960Z,22.20
2023-05-15T20:32:14.071Z,22.00
2023-05-15T20:34:48.412Z,22.00
2023-05-15T20:37:19.455Z,21.90
2023-05-15T20:39:50.708Z,22.00
2023-05-15T20:42:21.524Z,22.20
2023-05-15T20:44:53.137Z,21.70
2023-05-15T20:47:24.140Z,21.30
2023-05-15T20:49:57.652Z,21.30
2023-05-15T20:52:31.433Z,21.20
2023-05-15T20:55:02.554Z,21.50
2023-05-15T20:57:33.422Z,21.60
2023-05-15T21:00:05.913Z,20.90
2023-05-15T21:02:36.765Z,20.40
2023-05-15T21:05:11.483Z,20.40
2023-05-15T21:07:42.403Z,20.30
2023-05-15T21:10:13.958Z,20.60
2023-05-15T21:12:45.001Z,20.60
2023-05-15T21:15:15.980Z,20.40
2023-05-15T21:17:46.967Z,20.70
2023-05-15T21:20:20.666Z,20.00
2023-05-15T21:22:51.528Z,20.50
2023-05-15T21:25:22.717Z,20.70
2023-05-15T21:27:53.544Z,20.10
2023-05-15T21:30:24.922Z,20.50
2023-05-15T21:32:56.143Z,20.60
2023-05-15T21:35:31.845Z,20.40
2023-05-15T21:38:03.569Z,20.40
2023-05-15T21:40:35.073Z,20.50
2023-05-15T21:43:05.998Z,20.70
2023-05-15T21:45:36.921Z,20.40
2023-05-15T21:48:08.155Z,20.20
2023-05-15T21:50:41.890Z,20.20
2023-05-15T21:53:12.716Z,20.00
2023-05-15T21:55:44.401Z,20.30
2023-05-15T21:58:15.314Z,20.10
2023-05-15T22:00:46.317Z,19.90
2023-05-15T22:03:18.279Z,20.20
2023-05-15T22:05:52.999Z,21.00
2023-05-15T22:08:24.025Z,20.90
2023-05-15T22:10:56.394Z,20.50
2023-05-15T22:13:27.224Z,20.70
2023-05-15T22:15:58.110Z,20.50
2023-05-15T22:18:29.119Z,20.90
2023-05-15T22:21:03.239Z,20.90
2023-05-15T22:23:34.320Z,20.80
2023-05-15T22:26:05.289Z,20.70
2023-05-15T22:28:36.105Z,21.00
2023-05-15T22:31:07.491Z,21.40
2023-05-15T22:33:41.420Z,21.50
2023-05-15T22:36:15.018Z,22.10
2023-05-15T22:38:45.857Z,22.20
2023-05-15T22:41:16.774Z,22.40
2023-05-15T22:43:47.641Z,23.20
2023-05-15T22:46:18.902Z,23.50
2023-05-15T22:48:49.730Z,23.90
2023-05-15T22:51:23.972Z,24.20
2023-05-15T22:53:54.878Z,24.50
2023-05-15T22:56:26.576Z,24.50
2023-05-15T22:58:57.413Z,24.30
2023-05-15T23:01:30.001Z,25.00
2023-05-15T23:04:00.955Z,26.20
2023-05-15T23:06:34.718Z,26.10
2023-05-15T23:09:05.911Z,26.10
2023-05-15T23:11:37.948Z,26.10
2023-05-15T23:14:09.533Z,27.00
2023-05-15T23:16:40.421Z,28.20
2023-05-15T23:19:11.448Z,29.20
2023-05-15T23:21:44.889Z,30.60
2023-05-15T23:24:16.304Z,32.70
2023-05-15T23:26:47.113Z,35.10
2023-05-15T23:29:17.932Z,37.00
2023-05-15T23:31:49.156Z,39.70
2023-05-15T23:34:20.194Z,41.80
2023-05-15T23:36:53.685Z,40.90
2023-05-15T23:39:24.532Z,42.10
2023-05-15T23:41:55.738Z,48.50
2023-05-15T23:44:26.749Z,60.00
2023-05-15T23:46:57.657Z,60.90
2023-05-15T23:49:28.617Z,63.60
2023-05-15T23:52:05.101Z,78.10
2023-05-15T23:54:36.028Z,81.60
2023-05-15T23:57:10.033Z,90.00
2023-05-15T23:59:40.991Z,91.40
